»·PEaware :: N6801K KRNM-KBTY

N6801K :: KRNM-KBTY

FLIGHT INFORMATION

Flight Status: Arrived
Operator: Privately registered:
United States
More flights under this callsign
Pilot: John P. (31881)
Aircraft: BEECH AIRCRAFT BARON
(BE58)
More flights by this aircraft type
Origin: KRNM Ramona
United States
Destination: KBTY Beatty
United States
More flights between these airports :: More routes between these airports
Route: RNM DAG SKYRANCH BTY
File this flight plan on PilotEdge
Remarks:
Altitude:
(Current/Filed)
9,500ft
Speed:
(Current/Filed)
176kts
Departed: 04-Nov-20 08:12 PM
Arrived: 04-Nov-20 09:35 PM
Distance/Time
Traveled:
6738nm/1:23
Distance/Time
To Go:
Arrived

Flight Plot

Page will automatically refresh every two minutes.

Flight plan parsing failed; only flown route is shown


Map Options




Map Legend


Flown Route
Filed Route
Departure Airport
Arrival Airport
Navaid (VOR, NDB)
Fix

Horizontal Profiles

Position Reports

Time Latitude Longitude Heading Altitude Ground
Speed
04-Nov-20 19:58 33.039570 -116.910314 278 1396ft 0kts
04-Nov-20 19:59 33.039570 -116.910314 278 1396ft 0kts
04-Nov-20 20:00 33.039570 -116.910314 278 1396ft 0kts
04-Nov-20 20:01 33.039570 -116.910314 278 1396ft 0kts
04-Nov-20 20:02 33.039570 -116.910314 278 1396ft 0kts
04-Nov-20 20:03 33.039570 -116.910314 278 1396ft 0kts
04-Nov-20 20:04 33.039570 -116.910314 278 1396ft 0kts
04-Nov-20 20:05 33.039570 -116.910314 278 1396ft 0kts
04-Nov-20 20:06 33.039570 -116.910314 278 1396ft 0kts
04-Nov-20 20:07 33.039570 -116.910314 278 1396ft 0kts
04-Nov-20 20:08 33.039061 -116.909738 99 1397ft 18kts
04-Nov-20 20:09 33.038485 -116.907466 185 1398ft 0kts
04-Nov-20 20:10 33.038192 -116.908289 276 1398ft 19kts
04-Nov-20 20:11 33.049991 -116.934124 22 3320ft 116kts
04-Nov-20 20:12 33.073348 -116.912004 20 6147ft 114kts
04-Nov-20 20:13 33.104676 -116.903655 11 8674ft 116kts
04-Nov-20 20:14 33.145807 -116.896969 8 9598ft 178kts
04-Nov-20 20:15 33.195647 -116.888440 9 9632ft 181kts
04-Nov-20 20:16 33.245130 -116.879876 8 9649ft 182kts
04-Nov-20 20:17 33.295757 -116.871160 8 9649ft 183kts
04-Nov-20 20:18 33.346035 -116.862497 8 9651ft 183kts
04-Nov-20 20:19 33.396647 -116.853759 8 9657ft 183kts
04-Nov-20 20:20 33.447157 -116.845030 8 9654ft 183kts
04-Nov-20 20:21 33.497375 -116.836337 9 9661ft 183kts
04-Nov-20 20:22 33.547773 -116.827608 9 9662ft 182kts
04-Nov-20 20:23 33.598023 -116.818886 9 9663ft 182kts
04-Nov-20 20:24 33.648451 -116.810131 9 9670ft 183kts
04-Nov-20 20:25 33.698805 -116.801389 9 9670ft 182kts
04-Nov-20 20:26 33.709877 -116.799458 9 9670ft 182kts
04-Nov-20 20:27 33.759556 -116.790796 9 9673ft 182kts
04-Nov-20 20:28 33.809105 -116.782168 9 9671ft 178kts
04-Nov-20 20:29 33.857913 -116.773642 9 9680ft 179kts
04-Nov-20 20:30 33.904982 -116.754819 21 9680ft 179kts
04-Nov-20 20:31 33.951207 -116.733440 21 9679ft 177kts
04-Nov-20 20:32 33.997180 -116.712078 21 9685ft 177kts
04-Nov-20 20:33 34.043489 -116.690628 21 9684ft 178kts
04-Nov-20 20:34 34.089690 -116.669223 21 9686ft 178kts
04-Nov-20 20:35 34.135687 -116.647870 21 9689ft 177kts
04-Nov-20 20:36 34.182147 -116.626386 21 9689ft 178kts
04-Nov-20 20:37 34.229141 -116.604905 16 9524ft 181kts
04-Nov-20 20:38 34.278495 -116.595296 9 9504ft 179kts
04-Nov-20 20:39 34.327612 -116.586339 9 9503ft 179kts
04-Nov-20 20:40 34.377063 -116.577272 9 9498ft 179kts
04-Nov-20 20:41 34.426191 -116.568314 9 9503ft 179kts
04-Nov-20 20:42 34.475455 -116.559362 9 9500ft 179kts
04-Nov-20 20:43 34.524863 -116.550424 9 9506ft 180kts
04-Nov-20 20:44 34.574333 -116.541528 9 9501ft 179kts
04-Nov-20 20:45 34.623747 -116.532694 9 9503ft 180kts
04-Nov-20 20:46 34.673400 -116.523747 9 9505ft 180kts
04-Nov-20 20:47 34.723220 -116.514779 9 9504ft 181kts
04-Nov-20 20:48 34.772967 -116.505805 9 9502ft 181kts
04-Nov-20 20:49 34.822849 -116.496830 9 9502ft 180kts
04-Nov-20 20:50 34.872361 -116.487882 9 9500ft 181kts
04-Nov-20 20:51 34.922295 -116.480715 358 9503ft 181kts
04-Nov-20 20:52 34.972831 -116.483540 358 9502ft 181kts
04-Nov-20 20:53 35.023135 -116.486263 358 9502ft 182kts
04-Nov-20 20:54 35.066791 -116.459764 39 9504ft 180kts
04-Nov-20 20:55 35.104100 -116.418742 43 9499ft 180kts
04-Nov-20 20:56 35.140790 -116.377058 43 9500ft 180kts
04-Nov-20 20:57 35.177528 -116.335528 43 9498ft 180kts
04-Nov-20 20:59 35.214318 -116.293813 43 9498ft 180kts
04-Nov-20 21:00 35.250989 -116.252206 43 9497ft 180kts
04-Nov-20 21:01 35.287732 -116.210453 42 9497ft 180kts
04-Nov-20 21:02 35.325475 -116.170320 34 9501ft 180kts
04-Nov-20 21:03 35.371333 -116.148166 12 9497ft 180kts
04-Nov-20 21:04 35.420986 -116.136644 6 9288ft 189kts
04-Nov-20 21:05 35.474180 -116.139460 356 8563ft 187kts
04-Nov-20 21:06 35.525169 -116.144351 356 8502ft 182kts
04-Nov-20 21:07 35.572176 -116.165844 338 8500ft 182kts
04-Nov-20 21:08 35.619614 -116.188016 339 8498ft 182kts
04-Nov-20 21:09 35.666978 -116.210522 339 8498ft 183kts
04-Nov-20 21:10 35.714463 -116.233053 339 8497ft 183kts
04-Nov-20 21:11 35.764377 -116.256786 339 7586ft 196kts
04-Nov-20 21:12 35.815160 -116.280964 338 6658ft 193kts
04-Nov-20 21:13 35.863916 -116.304187 338 6508ft 184kts
04-Nov-20 21:13 35.903686 -116.323166 338 6500ft 183kts
04-Nov-20 21:15 35.959252 -116.349725 338 6498ft 183kts
04-Nov-20 21:15 35.998936 -116.368711 338 6498ft 183kts
04-Nov-20 21:17 36.054522 -116.395345 339 6498ft 184kts
04-Nov-20 21:17 36.094348 -116.414449 338 6499ft 184kts
04-Nov-20 21:18 36.141961 -116.437318 338 6498ft 184kts
04-Nov-20 21:19 36.191850 -116.461313 338 5627ft 196kts
04-Nov-20 21:20 36.243276 -116.483292 344 4768ft 190kts
04-Nov-20 21:21 36.287715 -116.499235 344 6197ft 166kts
04-Nov-20 21:22 36.334801 -116.516142 344 6482ft 182kts
04-Nov-20 21:23 36.383690 -116.534496 340 6497ft 184kts
04-Nov-20 21:24 36.431811 -116.556561 339 6500ft 184kts
04-Nov-20 21:25 36.479144 -116.581201 335 6425ft 188kts
04-Nov-20 21:26 36.526710 -116.610303 330 5926ft 191kts
04-Nov-20 21:27 36.573015 -116.642709 330 5424ft 191kts
04-Nov-20 21:28 36.619587 -116.675128 330 4921ft 191kts
04-Nov-20 21:29 36.665947 -116.707406 328 4417ft 181kts
04-Nov-20 21:30 36.702393 -116.734867 330 4216ft 139kts
04-Nov-20 21:31 36.734787 -116.758774 333 4216ft 133kts
04-Nov-20 21:32 36.766724 -116.782199 333 4203ft 133kts
04-Nov-20 21:33 36.799594 -116.788417 6 4093ft 88kts
04-Nov-20 21:34 36.818129 -116.787174 3 3028ft 0kts
04-Nov-20 21:35 0.000000 0.000000 0 0ft 0kts
04-Nov-20 21:36 0.000000 0.000000 0 0ft 0kts
04-Nov-20 21:37 0.000000 0.000000 0 0ft 0kts
04-Nov-20 21:38 0.000000 0.000000 0 0ft 0kts
04-Nov-20 21:39 0.000000 0.000000 0 0ft 0kts
04-Nov-20 21:40 0.000000 0.000000 0 0ft 0kts
04-Nov-20 21:41 0.000000 0.000000 0 0ft 0kts
04-Nov-20 21:42 0.000000 0.000000 0 0ft 0kts
04-Nov-20 21:43 0.000000 0.000000 0 0ft 0kts
04-Nov-20 21:44 0.000000 0.000000 0 0ft 0kts
04-Nov-20 21:45 0.000000 0.000000 0 0ft 0kts
04-Nov-20 21:46 0.000000 0.000000 0 0ft 0kts
04-Nov-20 21:47 0.000000 0.000000 0 0ft 0kts
04-Nov-20 21:48 0.000000 0.000000 0 0ft 0kts
04-Nov-20 21:49 0.000000 0.000000 0 0ft 0kts

Navigation Log

Ident Type
Flight plan parsing failed, navigation log unavailable